Schley, Wisconsin
Current Conditions -  °F | °C
As of 10:15 PM on Monday 22 Dec 2014 (Local Time) from KRRL Reporting Station
Light Snow Light Snow  
Wind Chill: 25°   Ceiling: 1200
Heat Index: 32°   Visibility: 2.5mi
Dew Point: 32°   Wind: 8mph
Humidity: 99%   Direction: 90°E
Pressure: 29.7"   Gusts: NA
Location:  45.2167°N, 89.8732°W
Report Text: KRRL 230415Z AUTO 09007KT 2 1/2SM -SN SCT008 OVC012 00/00 A2970 RMK AO2 T00001002
Loading
Personal Weather Stations






























Interactive Weather Map New forecast layout! Learn more

10-Day Weather Forecast

Advertisements
Track Severe Weather on mobile